Time;durP1;ratioP1;P1;durP2;ratioP2;P2;SDS_P1;SDS_P2;PMS_P1;PMS_P2;Temp;Humidity;BMP_temperature;BMP_pressure;BME280_temperature;BME280_humidity;BME280_pressure;Samples;Min_cycle;Max_cycle;Signal;HPM_P1;HPM_P2
2023/01/07 00:01:46;;;;;;;36.55;26.67;;;9.30;99.90;;;;;;5075496;28;20533;-70
2023/01/07 00:04:14;;;;;;;44.45;28.00;;;9.30;99.90;;;;;;5063143;28;20034;-70
2023/01/07 00:06:41;;;;;;;40.75;27.63;;;9.30;99.90;;;;;;5067489;28;20040;-70
2023/01/07 00:09:11;;;;;;;43.17;26.60;;;9.30;99.90;;;;;;5070774;28;20743;-70
2023/01/07 00:11:39;;;;;;;42.00;25.63;;;9.40;99.90;;;;;;5070506;28;20130;-69
2023/01/07 00:14:07;;;;;;;44.28;29.27;;;9.40;99.90;;;;;;5069617;28;20524;-70
2023/01/07 00:16:34;;;;;;;41.30;27.30;;;9.50;99.90;;;;;;5065591;28;20044;-70
2023/01/07 00:19:02;;;;;;;39.80;25.75;;;9.50;99.90;;;;;;5061147;28;20040;-70
2023/01/07 00:21:29;;;;;;;35.63;24.98;;;9.60;99.90;;;;;;5048736;28;20190;-70
2023/01/07 00:24:00;;;;;;;40.38;25.10;;;9.60;99.90;;;;;;5071250;28;20036;-70
2023/01/07 00:26:28;;;;;;;31.58;22.30;;;9.60;99.90;;;;;;5084728;28;20033;-70
2023/01/07 00:28:54;;;;;;;27.70;19.92;;;9.70;99.90;;;;;;5069481;28;20525;-70
2023/01/07 00:31:24;;;;;;;30.40;20.30;;;9.70;99.90;;;;;;5068095;28;20048;-70
2023/01/07 00:34:05;;;;;;;28.50;19.33;;;;;;;;;;5070451;28;20051;-70
2023/01/07 00:36:33;;;;;;;24.27;18.92;;;;;;;;;;5096192;28;20067;-70
2023/01/07 00:39:04;;;;;;;33.85;21.58;;;;;;;;;;5092890;28;20036;-70
2023/01/07 00:41:29;;;;;;;30.13;19.65;;;9.80;99.90;;;;;;5080206;28;20074;-70
2023/01/07 00:43:55;;;;;;;27.95;19.65;;;10.00;99.90;;;;;;5090111;28;20525;-70
2023/01/07 00:46:21;;;;;;;28.15;19.70;;;10.00;99.90;;;;;;5096820;28;20473;-70
2023/01/07 00:48:47;;;;;;;29.80;20.05;;;10.00;99.90;;;;;;5088396;28;20035;-70
2023/01/07 00:51:15;;;;;;;28.77;19.98;;;10.10;99.90;;;;;;5056294;28;20036;-70
2023/01/07 00:53:42;;;;;;;28.67;20.90;;;10.10;99.90;;;;;;5072056;28;20536;-70
2023/01/07 00:56:13;;;;;;;27.23;19.55;;;10.10;99.90;;;;;;5089732;28;20044;-70
2023/01/07 00:58:39;;;;;;;33.63;22.38;;;10.20;99.90;;;;;;5089506;28;20050;-70
2023/01/07 01:01:05;;;;;;;30.33;20.20;;;10.20;99.90;;;;;;5096213;28;20517;-70
2023/01/07 01:03:32;;;;;;;31.75;21.38;;;10.20;99.90;;;;;;5087231;28;20048;-70
2023/01/07 01:06:02;;;;;;;32.83;23.02;;;10.20;99.90;;;;;;5088359;28;20067;-70
2023/01/07 01:08:28;;;;;;;34.85;22.90;;;10.20;99.90;;;;;;5084770;28;20461;-70
2023/01/07 01:10:53;;;;;;;27.63;20.00;;;10.20;99.90;;;;;;5089460;28;20094;-70
2023/01/07 01:13:19;;;;;;;28.23;20.67;;;10.20;99.90;;;;;;5089132;28;20448;-70
2023/01/07 01:15:47;;;;;;;27.90;20.80;;;10.20;99.90;;;;;;5072645;28;20071;-70
2023/01/07 01:18:14;;;;;;;29.27;21.98;;;10.20;99.90;;;;;;5074815;28;20071;-70
2023/01/07 01:20:39;;;;;;;28.73;21.20;;;10.30;99.90;;;;;;5081991;28;20127;-70
2023/01/07 01:23:06;;;;;;;29.50;23.40;;;10.20;99.90;;;;;;5095028;28;20123;-70
2023/01/07 01:25:32;;;;;;;31.70;21.58;;;10.30;99.90;;;;;;5097859;28;20042;-70
2023/01/07 01:27:57;;;;;;;26.52;19.70;;;10.30;99.90;;;;;;5106683;27;20456;-70
2023/01/07 01:30:23;;;;;;;32.17;22.60;;;10.30;99.90;;;;;;5093753;28;20044;-70
2023/01/07 01:32:49;;;;;;;27.45;21.98;;;10.30;99.90;;;;;;5086997;28;20044;-70
2023/01/07 01:35:15;;;;;;;25.10;19.48;;;10.30;99.90;;;;;;5101457;28;20039;-70
2023/01/07 01:37:41;;;;;;;30.05;21.67;;;;;;;;;;5072096;28;20036;-70
2023/01/07 01:40:08;;;;;;;26.00;20.70;;;;;;;;;;5089663;28;20115;-69
2023/01/07 01:42:34;;;;;;;26.10;20.33;;;;;;;;;;5087265;28;20092;-71
2023/01/07 01:45:00;;;;;;;27.23;20.77;;;;;;;;;;5075179;28;20076;-70
2023/01/07 01:47:30;;;;;;;25.77;21.08;;;;;;;;;;5071229;28;20087;-70
2023/01/07 01:49:58;;;;;;;27.15;20.85;;;;;;;;;;5097411;28;20082;-70
2023/01/07 01:52:27;;;;;;;25.33;20.75;;;;;;;;;;5092797;28;20075;-70
2023/01/07 01:54:56;;;;;;;22.38;18.60;;;;;;;;;;5090552;28;20043;-70
2023/01/07 01:57:24;;;;;;;23.52;18.73;;;;;;;;;;5090032;28;20048;-70
2023/01/07 01:59:51;;;;;;;24.05;18.45;;;;;;;;;;5075132;28;20403;-70
2023/01/07 02:02:22;;;;;;;26.15;19.75;;;;;;;;;;5088789;28;20508;-70
2023/01/07 02:04:48;;;;;;;22.30;18.50;;;;;;;;;;5082530;28;20047;-70
2023/01/07 02:07:15;;;;;;;27.92;19.42;;;;;;;;;;5065398;28;20291;-70
2023/01/07 02:09:41;;;;;;;22.23;18.30;;;;;;;;;;5086550;28;20033;-70
2023/01/07 02:12:25;;;;;;;20.63;17.20;;;;;;;;;;5094070;28;20195;-70
2023/01/07 02:14:55;;;;;;;22.35;18.02;;;;;;;;;;5057859;28;20051;-70
2023/01/07 02:17:39;;;;;;;21.10;17.27;;;;;;;;;;5075360;28;20066;-70
2023/01/07 02:20:24;;;;;;;22.02;17.55;;;;;;;;;;5092570;28;20032;-70
2023/01/07 02:23:09;;;;;;;18.38;16.25;;;;;;;;;;5091558;28;20461;-70
2023/01/07 02:25:36;;;;;;;23.90;17.30;;;;;;;;;;5092853;28;20036;-70
2023/01/07 02:28:12;;;;;;;22.02;17.60;;;;;;;;;;5079104;28;20039;-70
2023/01/07 02:30:41;;;;;;;19.55;16.13;;;;;;;;;;5091606;28;20105;-72
2023/01/07 02:33:07;;;;;;;21.27;17.08;;;;;;;;;;5073754;28;20420;-70
2023/01/07 02:35:37;;;;;;;19.25;16.05;;;;;;;;;;5093839;28;20048;-70
2023/01/07 02:38:12;;;;;;;22.48;16.27;;;;;;;;;;5094170;28;20040;-70
2023/01/07 02:40:39;;;;;;;22.13;17.58;;;;;;;;;;5072159;28;20048;-70
2023/01/07 02:43:20;;;;;;;20.23;15.02;;;;;;;;;;5092752;28;20044;-70
2023/01/07 02:45:46;;;;;;;21.63;16.35;;;;;;;;;;5091931;28;20085;-70
2023/01/07 02:48:13;;;;;;;21.70;16.25;;;;;;;;;;5091187;28;20363;-70
2023/01/07 02:50:40;;;;;;;18.40;15.18;;;;;;;;;;5089576;28;20420;-70
2023/01/07 02:53:07;;;;;;;25.60;16.90;;;;;;;;;;5073656;28;20469;-70
2023/01/07 02:55:53;;;;;;;20.65;16.10;;;;;;;;;;5091695;28;20042;-70
2023/01/07 02:58:32;;;;;;;18.83;15.45;;;;;;;;;;5091038;28;20395;-72
2023/01/07 03:01:17;;;;;;;16.73;14.73;;;;;;;;;;5091278;28;20044;-70
2023/01/07 03:04:01;;;;;;;18.27;14.65;;;;;;;;;;5095194;28;20122;-70
2023/01/07 03:06:30;;;;;;;19.63;14.30;;;;;;;;;;5090705;28;20036;-70
2023/01/07 03:09:08;;;;;;;17.33;13.88;;;;;;;;;;5057352;28;20078;-70
2023/01/07 03:11:52;;;;;;;18.67;13.60;;;;;;;;;;5089967;28;20517;-70
2023/01/07 03:14:25;;;;;;;16.33;13.30;;;;;;;;;;5090648;28;20047;-70
2023/01/07 03:16:54;;;;;;;18.63;14.80;;;;;;;;;;5090159;28;20055;-70
2023/01/07 03:19:25;;;;;;;14.85;12.98;;;;;;;;;;5076537;28;20040;-70
2023/01/07 03:21:52;;;;;;;18.13;14.27;;;;;;;;;;5061833;28;20040;-70
2023/01/07 03:24:18;;;;;;;17.85;13.50;;;;;;;;;;5075125;28;20174;-70
2023/01/07 03:26:50;;;;;;;20.45;13.80;;;;;;;;;;5089251;28;20032;-70
2023/01/07 03:29:18;;;;;;;18.95;14.40;;;;;;;;;;5078498;28;20044;-70
2023/01/07 03:31:57;;;;;;;16.00;12.50;;;;;;;;;;5069584;28;20185;-70
2023/01/07 03:34:25;;;;;;;16.08;12.52;;;;;;;;;;5087987;28;20200;-70
2023/01/07 03:36:54;;;;;;;17.15;13.98;;;;;;;;;;5085280;28;20032;-70
2023/01/07 03:39:22;;;;;;;16.55;13.25;;;;;;;;;;5072986;28;20043;-70
2023/01/07 03:44:34;;;;;;;15.98;11.85;;;;;;;;;;5071744;28;20040;-70
2023/01/07 03:47:00;;;;;;;20.83;13.13;;;;;;;;;;5088980;28;20036;-70
2023/01/07 03:49:26;;;;;;;14.75;12.93;;;;;;;;;;5089619;28;20397;-70
2023/01/07 03:51:53;;;;;;;18.02;12.05;;;;;;;;;;5104694;27;20036;-70
2023/01/07 03:54:23;;;;;;;19.13;14.07;;;;;;;;;;5089583;28;20401;-70
2023/01/07 03:56:49;;;;;;;15.82;12.95;;;;;;;;;;5090103;28;20119;-70
2023/01/07 03:59:15;;;;;;;16.13;12.10;;;;;;;;;;5092103;28;20504;-70
2023/01/07 04:01:41;;;;;;;16.65;13.20;;;;;;;;;;5089042;28;20055;-70
2023/01/07 04:04:07;;;;;;;15.95;13.48;;;;;;;;;;5090258;28;20508;-70
2023/01/07 04:06:34;;;;;;;17.92;14.48;;;;;;;;;;5077459;28;20040;-70
2023/01/07 04:09:00;;;;;;;16.25;12.77;;;;;;;;;;5089233;28;20036;-71
2023/01/07 04:11:26;;;;;;;21.08;13.32;;;;;;;;;;5091025;28;20443;-70
2023/01/07 04:13:52;;;;;;;18.45;12.48;;;;;;;;;;5094489;28;20123;-70
2023/01/07 04:16:18;;;;;;;16.45;12.32;;;;;;;;;;5092912;28;20071;-70
2023/01/07 04:18:44;;;;;;;17.23;12.55;;;;;;;;;;5089771;28;20067;-70
2023/01/07 04:21:10;;;;;;;16.85;13.25;;;;;;;;;;5091027;28;20401;-70
2023/01/07 04:23:36;;;;;;;19.48;13.48;;;;;;;;;;5067269;28;20505;-70
2023/01/07 04:26:03;;;;;;;16.02;13.02;;;;;;;;;;5090348;28;20040;-70
2023/01/07 04:28:29;;;;;;;16.67;13.95;;;;;;;;;;5091031;28;20036;-70
2023/01/07 04:30:57;;;;;;;17.27;15.05;;;;;;;;;;5088200;28;20860;-71
2023/01/07 04:33:23;;;;;;;19.58;14.15;;;;;;;;;;5072736;28;20048;-69
2023/01/07 04:35:50;;;;;;;20.20;15.23;;;;;;;;;;5092778;28;20046;-70
2023/01/07 04:38:16;;;;;;;19.25;14.35;;;;;;;;;;5088749;28;20047;-70
2023/01/07 04:40:42;;;;;;;15.23;13.60;;;;;;;;;;5072689;28;20043;-70
2023/01/07 04:43:08;;;;;;;22.30;16.30;;;;;;;;;;5086333;28;20044;-70
2023/01/07 04:45:34;;;;;;;19.77;15.00;;;;;;;;;;5085931;28;20272;-71
2023/01/07 04:48:01;;;;;;;19.33;15.07;;;;;;;;;;5092198;28;20040;-71
2023/01/07 04:50:27;;;;;;;19.60;14.85;;;;;;;;;;5088099;28;20055;-70
2023/01/07 04:52:53;;;;;;;19.92;15.02;;;;;;;;;;5065842;28;20048;-70
2023/01/07 04:55:19;;;;;;;18.35;14.13;;;;;;;;;;5089116;28;20405;-70
2023/01/07 04:57:45;;;;;;;19.83;15.35;;;;;;;;;;5088236;28;20118;-72
2023/01/07 05:00:12;;;;;;;19.20;15.63;;;;;;;;;;5083987;28;20482;-70
2023/01/07 05:02:38;;;;;;;19.35;14.23;;;;;;;;;;5082539;28;20047;-72
2023/01/07 05:05:04;;;;;;;20.30;14.98;;;;;;;;;;5090951;28;20028;-70
2023/01/07 05:07:30;;;;;;;20.73;15.65;;;;;;;;;;5105284;28;20043;-70
2023/01/07 05:09:56;;;;;;;22.45;16.13;;;;;;;;;;5092211;28;20040;-70
2023/01/07 05:12:22;;;;;;;20.05;16.13;;;;;;;;;;5075780;28;20536;-70
2023/01/07 05:14:48;;;;;;;19.40;15.63;;;;;;;;;;5070743;28;20052;-71
2023/01/07 05:17:14;;;;;;;24.05;15.50;;;;;;;;;;5090621;28;20573;-70
2023/01/07 05:19:41;;;;;;;21.73;15.20;;;;;;;;;;5085642;28;20051;-70
2023/01/07 05:22:07;;;;;;;22.60;15.43;;;;;;;;;;5091440;28;20497;-70
2023/01/07 05:24:33;;;;;;;20.33;15.20;;;;;;;;;;5083158;28;20024;-70
2023/01/07 05:26:59;;;;;;;19.58;14.77;;;;;;;;;;5087004;28;20046;-70
2023/01/07 05:29:25;;;;;;;25.25;15.73;;;;;;;;;;5087013;28;20059;-71
2023/01/07 05:31:51;;;;;;;21.48;16.15;;;;;;;;;;5073002;28;20538;-72
2023/01/07 05:34:17;;;;;;;19.35;15.68;;;;;;;;;;5071835;28;20052;-70
2023/01/07 05:36:44;;;;;;;20.05;15.80;;;;;;;;;;5106827;28;20075;-71
2023/01/07 05:39:10;;;;;;;20.27;14.38;;;;;;;;;;5109230;28;20492;-70
2023/01/07 05:41:36;;;;;;;16.38;13.40;;;;;;;;;;5071829;28;20127;-70
2023/01/07 05:44:02;;;;;;;20.55;15.13;;;;;;;;;;5086566;28;20064;-70
2023/01/07 05:46:28;;;;;;;19.60;15.18;;;;;;;;;;5088651;28;20081;-71
2023/01/07 05:48:54;;;;;;;21.60;15.32;;;;;;;;;;5087442;28;20036;-70
2023/01/07 05:51:20;;;;;;;21.48;15.00;;;;;;;;;;5091163;28;20123;-72
2023/01/07 05:53:46;;;;;;;21.60;14.27;;;;;;;;;;5087193;28;20043;-70
2023/01/07 05:56:13;;;;;;;18.77;14.18;;;;;;;;;;5090769;28;20036;-70
2023/01/07 05:58:39;;;;;;;18.05;13.50;;;;;;;;;;5086896;28;20499;-70
2023/01/07 06:01:05;;;;;;;23.77;15.38;;;;;;;;;;5072141;28;20041;-70
2023/01/07 06:03:31;;;;;;;20.95;14.40;;;;;;;;;;5085247;28;20055;-71
2023/01/07 06:05:57;;;;;;;19.25;13.25;;;;;;;;;;5095907;28;20468;-70
2023/01/07 06:08:23;;;;;;;15.50;12.07;;;;;;;;;;5093829;28;20088;-70
2023/01/07 06:10:49;;;;;;;22.80;14.20;;;;;;;;;;5077676;28;20474;-71
2023/01/07 06:13:15;;;;;;;19.65;13.02;;;;;;;;;;5078941;28;20105;-70
2023/01/07 06:15:41;;;;;;;19.55;13.25;;;;;;;;;;5106037;27;20096;-70
2023/01/07 06:18:08;;;;;;;17.42;14.10;;;;;;;;;;5084217;28;20059;-70
2023/01/07 06:20:34;;;;;;;22.05;14.32;;;;;;;;;;5080759;28;20127;-70
2023/01/07 06:23:03;;;;;;;16.92;12.82;;;;;;;;;;5088977;28;20390;-70
2023/01/07 06:25:29;;;;;;;18.10;15.02;;;;;;;;;;5091322;28;20051;-70
2023/01/07 06:27:58;;;;;;;21.10;13.07;;;;;;;;;;5089314;28;20493;-70
2023/01/07 06:30:24;;;;;;;19.05;13.35;;;;;;;;;;5089018;28;20044;-70
2023/01/07 06:32:50;;;;;;;20.27;12.77;;;;;;;;;;5091695;28;20052;-71
2023/01/07 06:35:17;;;;;;;15.13;11.63;;;;;;;;;;5109936;27;20082;-70
2023/01/07 06:37:43;;;;;;;18.77;12.95;;;;;;;;;;5095882;28;20035;-70
2023/01/07 06:40:10;;;;;;;18.40;11.40;;;;;;;;;;5098240;28;20374;-70
2023/01/07 06:42:37;;;;;;;19.42;12.65;;;;;;;;;;5060595;28;20044;-70
2023/01/07 06:45:03;;;;;;;22.75;13.23;;;;;;;;;;5073703;28;20035;-70
2023/01/07 06:47:29;;;;;;;14.30;11.57;;;;;;;;;;5092934;28;20117;-70
2023/01/07 06:49:55;;;;;;;15.10;10.93;;;;;;;;;;5095623;28;20040;-70
2023/01/07 06:52:21;;;;;;;16.58;10.63;;;;;;;;;;5092785;28;20051;-70
2023/01/07 06:54:47;;;;;;;18.55;11.75;;;;;;;;;;5085574;28;20163;-70
2023/01/07 06:57:13;;;;;;;18.02;11.80;;;;;;;;;;5078278;28;20146;-70
2023/01/07 06:59:40;;;;;;;16.27;11.15;;;;;;;;;;5091683;28;20133;-70
2023/01/07 07:02:06;;;;;;;14.80;11.48;;;;;;;;;;5092245;28;20040;-70
2023/01/07 07:04:32;;;;;;;13.07;10.95;;;;;;;;;;5083151;28;20035;-70
2023/01/07 07:06:58;;;;;;;15.05;11.48;;;;;;;;;;5086361;28;20057;-70
2023/01/07 07:09:24;;;;;;;18.95;11.35;;;;;;;;;;5076023;28;20042;-70
2023/01/07 07:11:50;;;;;;;14.52;11.10;;;;;;;;;;5061516;28;20036;-70
2023/01/07 07:14:16;;;;;;;17.35;12.18;;;;;;;;;;5090663;28;20124;-70
2023/01/07 07:16:43;;;;;;;14.63;10.98;;;;;;;;;;5080199;28;20127;-70
2023/01/07 07:19:09;;;;;;;17.15;11.15;;;;;;;;;;5084027;28;20047;-70
2023/01/07 07:21:35;;;;;;;14.90;10.55;;;;;;;;;;5057897;28;20082;-70
2023/01/07 07:24:01;;;;;;;16.92;10.35;;;;;;;;;;5084343;28;20045;-70
2023/01/07 07:26:27;;;;;;;12.95;10.20;;;;;;;;;;5092211;28;20501;-70
2023/01/07 07:28:53;;;;;;;15.65;11.38;;;;;;;;;;5088035;28;20098;-70
2023/01/07 07:31:19;;;;;;;13.68;10.73;;;;;;;;;;5066881;28;20051;-70
2023/01/07 07:33:45;;;;;;;14.82;9.38;;;;;;;;;;5061034;28;20087;-70
2023/01/07 07:36:12;;;;;;;13.98;10.48;;;;;;;;;;5081621;28;20109;-70
2023/01/07 07:38:38;;;;;;;14.00;9.48;;;;;;;;;;5068227;28;20044;-70
2023/01/07 07:41:04;;;;;;;17.67;9.95;;;;;;;;;;5094941;27;20462;-70
2023/01/07 07:43:30;;;;;;;13.68;10.57;;;;;;;;;;5082769;28;20067;-70
2023/01/07 07:45:57;;;;;;;15.50;10.25;;;;;;;;;;5083192;28;20043;-70
2023/01/07 07:48:23;;;;;;;13.23;9.32;;;;;;;;;;5081721;28;20508;-70
2023/01/07 07:50:52;;;;;;;13.30;9.27;;;;;;;;;;5059671;28;20040;-70
2023/01/07 07:53:19;;;;;;;11.57;8.85;;;;;;;;;;5078726;28;20060;-70
2023/01/07 07:55:45;;;;;;;14.48;9.10;;;;;;;;;;5067554;28;20079;-70
2023/01/07 07:58:11;;;;;;;13.15;9.27;;;;;;;;;;5067395;28;20036;-70
2023/01/07 08:00:38;;;;;;;11.60;9.20;;;;;;;;;;5080119;28;20078;-70
2023/01/07 08:03:04;;;;;;;10.48;8.43;;;;;;;;;;5084546;28;20397;-70
2023/01/07 08:05:30;;;;;;;13.15;9.02;;;;;;;;;;5080153;28;20063;-70
2023/01/07 08:07:57;;;;;;;11.55;8.68;;;;;;;;;;5061522;28;20118;-70
2023/01/07 08:10:24;;;;;;;15.23;8.45;;;;;;;;;;5082399;28;20032;-70
2023/01/07 08:12:50;;;;;;;13.15;8.93;;;;;;;;;;5078459;28;20036;-70
2023/01/07 08:15:16;;;;;;;16.20;8.85;;;;;;;;;;5087692;28;20036;-70
2023/01/07 08:17:42;;;;;;;10.77;8.43;;;;;;;;;;5064566;28;20040;-70
2023/01/07 08:20:09;;;;;;;9.00;7.38;;;;;;;;;;5083220;28;20040;-70
2023/01/07 08:22:35;;;;;;;10.57;7.60;;;;;;;;;;5080128;28;20490;-70
2023/01/07 08:25:02;;;;;;;14.13;7.22;;;;;;;;;;5085174;28;20036;-70
2023/01/07 08:27:28;;;;;;;10.05;7.90;;;;;;;;;;5084870;28;20082;-70
2023/01/07 08:29:55;;;;;;;12.00;7.22;;;;;;;;;;5062901;28;20044;-70
2023/01/07 08:32:21;;;;;;;10.48;6.80;;;;;;;;;;5079787;28;20040;-70
2023/01/07 08:34:48;;;;;;;11.52;6.85;;;;;;;;;;5081205;28;20049;-70
2023/01/07 08:37:14;;;;;;;13.98;7.93;;;;;;;;;;5087025;28;20453;-70
2023/01/07 08:39:40;;;;;;;10.63;7.30;;;;;;;;;;5059823;28;20044;-70
2023/01/07 08:42:06;;;;;;;8.65;6.22;;;;;;;;;;5063253;28;20320;-70
2023/01/07 08:44:33;;;;;;;12.27;6.38;;;;;;;;;;5080368;28;20036;-71
2023/01/07 08:46:59;;;;;;;8.45;6.55;;;;;;;;;;5078597;28;20095;-70
2023/01/07 08:49:25;;;;;;;10.32;6.95;;;;;;;;;;5081896;28;20032;-71
2023/01/07 08:51:51;;;;;;;9.27;6.90;;;;;;;;;;5078379;28;20035;-70
2023/01/07 08:54:17;;;;;;;7.72;6.32;;;;;;;;;;5085565;28;20136;-70
2023/01/07 08:56:44;;;;;;;9.27;6.25;;;;;;;;;;5106237;28;20044;-70
2023/01/07 08:59:10;;;;;;;11.40;6.35;;;;;;;;;;5071578;28;20055;-70
2023/01/07 09:01:36;;;;;;;9.98;6.75;;;;;;;;;;5086692;28;20036;-70
2023/01/07 09:04:02;;;;;;;8.75;6.53;;;;;;;;;;5082235;28;20036;-70
2023/01/07 09:06:28;;;;;;;8.10;5.32;;;;;;;;;;5090205;28;20039;-70
2023/01/07 09:08:54;;;;;;;8.60;6.22;;;;;;;;;;5048133;28;20263;-71
2023/01/07 09:11:20;;;;;;;8.57;6.50;;;;;;;;;;5103389;28;20042;-71
2023/01/07 09:13:47;;;;;;;12.25;6.32;;;;;;;;;;5084132;28;20044;-70
2023/01/07 09:16:13;;;;;;;9.65;5.85;;;;;;;;;;5089733;28;20045;-70
2023/01/07 09:18:39;;;;;;;8.75;5.88;;;;;;;;;;5070809;28;20109;-70
2023/01/07 09:21:05;;;;;;;9.48;6.13;;;;;;;;;;5090719;28;20175;-70
2023/01/07 09:23:31;;;;;;;8.65;5.72;;;;;;;;;;5088558;28;20128;-70
2023/01/07 09:25:57;;;;;;;7.35;5.07;;;;;;;;;;5088488;28;20075;-70
2023/01/07 09:28:24;;;;;;;9.15;5.68;;;;;;;;;;5085687;28;20036;-70
2023/01/07 09:30:50;;;;;;;6.65;4.30;;;;;;;;;;5068361;28;20066;-70
2023/01/07 09:33:16;;;;;;;5.85;4.65;;;;;;;;;;5082871;28;20052;-69
2023/01/07 09:35:42;;;;;;;9.70;4.70;;;;;;;;;;5093198;28;20047;-70
2023/01/07 09:38:08;;;;;;;5.75;5.10;;;;;;;;;;5060036;28;20404;-70
2023/01/07 09:40:39;;;;;;;8.85;4.78;;;;;;;;;;5091303;28;20082;-70
2023/01/07 09:43:17;;;;;;;6.38;4.47;;;;;;;;;;5093226;28;20036;-70
2023/01/07 09:45:49;;;;;;;10.15;5.20;;;;;;;;;;5089581;28;20044;-70
2023/01/07 09:48:33;;;;;;;6.78;4.07;;;;;;;;;;5087715;28;20040;-70
2023/01/07 09:51:03;;;;;;;6.72;4.13;;;;;;;;;;5091888;28;20495;-70
2023/01/07 09:53:37;;;;;;;7.35;3.88;;;;;;;;;;5094914;28;20040;-70
2023/01/07 09:56:05;;;;;;;6.45;3.70;;;;;;;;;;5083692;28;20046;-70
2023/01/07 09:58:31;;;;;;;6.93;3.83;;;;;;;;;;5091376;28;20063;-70
2023/01/07 10:01:06;;;;;;;7.75;4.05;;;;;;;;;;5074001;28;20117;-70
2023/01/07 10:03:38;;;;;;;7.55;5.00;;;;;;;;;;5090256;28;20448;-70
2023/01/07 10:06:13;;;;;;;7.43;4.28;;;;;;;;;;5089344;28;20109;-70
2023/01/07 10:08:40;;;;;;;6.00;4.30;;;;;;;;;;5090693;28;20086;-70
2023/01/07 10:11:26;;;;;;;4.68;2.85;;;;;;;;;;5089298;28;20055;-70
2023/01/07 10:13:52;;;;;;;5.70;3.50;;;;;;;;;;5061699;28;20040;-70
2023/01/07 10:16:21;;;;;;;6.40;3.60;;;;;;;;;;5076702;28;20083;-70
2023/01/07 10:18:53;;;;;;;4.55;3.45;;;;;;;;;;5087219;28;20605;-70
2023/01/07 10:21:41;;;;;;;5.63;3.20;;;;;;;;;;5072291;28;20040;-70
2023/01/07 10:24:15;;;;;;;4.00;2.90;;;;;;;;;;5076798;28;20060;-70
2023/01/07 10:26:43;;;;;;;8.52;3.38;;;;;;;;;;5093824;28;20081;-70
2023/01/07 10:29:13;;;;;;;5.82;3.60;;;;;;;;;;5086074;28;20036;-70
2023/01/07 10:31:39;;;;;;;5.53;2.67;;;;;;;;;;5081137;28;20040;-70
2023/01/07 10:34:12;;;;;;;4.32;2.53;;;;;;;;;;5085866;28;20048;-70
2023/01/07 10:36:38;;;;;;;;;;;;;;;;;;5076530;28;20488;-70
2023/01/07 10:39:10;;;;;;;4.20;3.13;;;;;;;;;;5090635;28;19916;-70
2023/01/07 10:41:36;;;;;;;6.90;3.33;;;;;;;;;;5072586;28;20040;-70
2023/01/07 10:44:09;;;;;;;7.60;3.53;;;;;;;;;;5060153;28;20512;-70
2023/01/07 10:46:42;;;;;;;7.28;2.40;;;;;;;;;;5081988;28;20044;-70
2023/01/07 10:49:40;;;;;;;6.25;3.33;;;;;;;;;;5098858;27;20059;-70
2023/01/07 10:52:14;;;;;;;6.22;3.67;;;;;;;;;;5058780;28;20451;-70
2023/01/07 10:55:05;;;;;;;7.10;3.67;;;;;;;;;;5082791;28;20032;-70
2023/01/07 10:57:31;;;;;;;6.38;3.85;;;;;;;;;;5076405;28;20047;-70
2023/01/07 11:00:04;;;;;;;8.68;3.53;;;;;;;;;;5067647;28;20123;-70
2023/01/07 11:02:30;;;;;;;6.22;3.60;;;;;;;;;;5089066;28;20036;-70
2023/01/07 11:04:57;;;;;;;5.03;2.80;;;;;;;;;;5079967;28;20033;-70
2023/01/07 11:07:45;;;;;;;6.00;3.20;;;;;;;;;;5087549;28;20036;-70
2023/01/07 11:10:15;;;;;;;3.28;2.63;;;;;;;;;;5077616;28;20541;-71
2023/01/07 11:12:46;;;;;;;6.75;2.55;;;;;;;;;;5080889;28;20101;-71
2023/01/07 11:15:25;;;;;;;4.95;2.95;;;;;;;;;;5075709;28;20097;-70
2023/01/07 11:17:55;;;;;;;8.30;4.55;;;;;;;;;;5077051;28;20032;-70
2023/01/07 11:20:48;;;;;;;16.40;7.20;;;;;;;;;;5077652;28;20044;-71
2023/01/07 11:23:33;;;;;;;15.53;8.60;;;;;;;;;;5075137;28;20127;-71
2023/01/07 11:26:08;;;;;;;12.98;7.70;;;;;;;;;;5062679;28;20430;-71
2023/01/07 11:28:35;;;;;;;9.75;5.47;;;;;;;;;;5055376;28;20104;-71
2023/01/07 11:31:02;;;;;;;10.57;4.72;;;;;;;;;;5079670;28;20044;-71
2023/01/07 11:33:35;;;;;;;6.03;3.97;;;;;;;;;;5079315;28;20048;-71
2023/01/07 11:36:01;;;;;;;6.93;4.22;;;;;;;;;;5062566;28;20560;-70
2023/01/07 11:38:32;;;;;;;5.20;3.58;;;;;;;;;;5066590;28;20118;-71
2023/01/07 11:40:59;;;;;;;8.13;3.20;;;;;;;;;;5094329;27;20039;-71
2023/01/07 11:43:31;;;;;;;7.32;3.10;;;;;;;;;;5073246;28;20524;-70
2023/01/07 11:46:01;;;;;;;4.82;2.60;;;;;;;;;;5086314;28;20036;-70
2023/01/07 11:48:32;;;;;;;6.03;2.55;;;;;;;;;;5073994;28;20049;-71
2023/01/07 11:50:59;;;;;;;6.72;3.28;;;;;;;;;;5067318;28;20044;-70
2023/01/07 11:53:33;;;;;;;3.03;2.25;;;;;;;;;;5076823;28;20570;-70
2023/01/07 11:56:01;;;;;;;4.25;2.33;;;;;;;;;;5083943;28;20040;-70
2023/01/07 11:58:29;;;;;;;4.30;2.47;;;;;;;;;;5082107;28;20379;-70
2023/01/07 12:01:02;;;;;;;7.65;3.33;;;;;;;;;;5082542;28;20455;-70
2023/01/07 12:03:29;;;;;;;4.25;2.10;;;;;;;;;;5083323;28;20048;-70
2023/01/07 12:05:56;;;;;;;7.03;2.53;;;;;;;;;;5083539;28;20036;-70
2023/01/07 12:08:25;;;;;;;3.83;2.20;;;;;;;;;;5085686;28;20035;-70
2023/01/07 12:10:56;;;;;;;4.88;1.60;;;;;;;;;;5077968;28;20533;-70
2023/01/07 12:13:24;;;;;;;3.75;1.73;;;;;;;;;;5082606;28;20044;-70
2023/01/07 12:15:51;;;;;;;3.33;1.83;;;;;;;;;;5086294;28;20067;-71
2023/01/07 12:18:43;;;;;;;3.20;1.63;;;;;;;;;;5083405;28;20047;-71
2023/01/07 12:21:19;;;;;;;4.88;1.70;;;;;;;;;;5062624;28;20061;-70
2023/01/07 12:23:57;;;;;;;3.97;1.73;;;;;;;;;;5064313;28;20050;-71
2023/01/07 12:26:42;;;;;;;2.90;1.92;;;;;;;;;;5083302;28;20112;-70
2023/01/07 12:29:28;;;;;;;5.20;1.60;;;10.30;99.90;;;;;;5085262;28;20363;-70
2023/01/07 12:31:54;;;;;;;2.58;1.73;;;;;;;;;;5077446;28;20059;-70
2023/01/07 12:34:20;;;;;;;4.45;1.33;;;;;;;;;;5080752;28;20048;-70
2023/01/07 12:36:55;;;;;;;3.20;1.60;;;11.60;99.90;;;;;;5079661;28;20203;-70
2023/01/07 12:39:44;;;;;;;1.27;1.13;;;;;;;;;;5077586;28;20044;-70
2023/01/07 12:42:43;;;;;;;2.03;1.20;;;;;;;;;;5075943;28;20587;-70
2023/01/07 12:45:15;;;;;;;2.17;1.20;;;;;;;;;;5038983;28;20144;-70
2023/01/07 12:47:45;;;;;;;3.60;1.17;;;;;;;;;;5065261;28;20058;-70
2023/01/07 12:50:29;;;;;;;3.33;1.42;;;;;;;;;;5069393;28;20375;-71
2023/01/07 12:53:09;;;;;;;2.75;1.38;;;;;;;;;;5090841;28;20039;-70
2023/01/07 12:55:39;;;;;;;2.75;1.48;;;;;;;;;;5082502;28;20040;-71
2023/01/07 12:58:24;;;;;;;3.70;1.67;;;;;;;;;;5079699;28;20473;-70
2023/01/07 13:01:10;;;;;;;2.10;1.15;;;;;;;;;;5079622;28;20075;-70
2023/01/07 13:03:44;;;;;;;3.08;1.05;;;;;;;;;;5061830;28;20051;-70
2023/01/07 13:06:15;;;;;;;2.15;1.08;;;;;;;;;;5079277;28;20497;-70
2023/01/07 13:08:50;;;;;;;3.63;1.65;;;;;;;;;;5087486;28;20035;-70
2023/01/07 13:14:36;;;;;;;3.00;1.25;;;11.80;99.90;;;;;;5087643;28;20055;-70
2023/01/07 13:17:31;;;;;;;3.22;2.10;;;11.70;99.90;;;;;;5076760;28;20216;-70
2023/01/07 13:19:57;;;;;;;5.13;2.78;;;11.60;99.90;;;;;;5071198;28;20505;-70
2023/01/07 13:22:38;;;;;;;2.47;1.10;;;11.50;99.90;;;;;;5084676;28;20730;-70
2023/01/07 13:25:28;;;;;;;2.35;1.38;;;11.50;99.90;;;;;;5086123;28;20031;-70
2023/01/07 13:28:16;;;;;;;4.10;1.23;;;11.40;99.90;;;;;;5086149;28;20036;-70
2023/01/07 13:31:06;;;;;;;1.73;1.10;;;11.30;99.90;;;;;;5066472;28;20044;-70
2023/01/07 13:33:50;;;;;;;2.42;1.45;;;11.30;99.90;;;;;;5087020;28;20398;-70
2023/01/07 13:36:26;;;;;;;1.70;1.40;;;11.20;99.90;;;;;;5070130;28;20044;-70
2023/01/07 13:39:21;;;;;;;2.40;1.42;;;11.10;99.90;;;;;;5088953;28;20032;-70
2023/01/07 13:42:00;;;;;;;3.92;2.30;;;11.00;99.90;;;;;;5074528;28;20070;-70
2023/01/07 13:44:53;;;;;;;2.20;1.45;;;11.00;99.90;;;;;;5101329;27;20130;-70
2023/01/07 13:47:22;;;;;;;2.35;1.38;;;10.90;99.90;;;;;;5087009;28;20116;-70
2023/01/07 13:50:02;;;;;;;1.92;1.20;;;;;;;;;;5072674;28;20039;-70
2023/01/07 13:52:30;;;;;;;2.92;1.45;;;;;;;;;;5091822;28;20385;-70
2023/01/07 13:54:58;;;;;;;4.30;1.73;;;;;;;;;;5075032;28;20040;-70
2023/01/07 13:57:30;;;;;;;3.63;2.72;;;;;;;;;;5091970;28;20463;-70
2023/01/07 14:00:01;;;;;;;2.92;2.13;;;;;;;;;;5088650;28;20078;-70
2023/01/07 14:02:28;;;;;;;3.17;2.10;;;;;;;;;;5083861;28;20466;-71
2023/01/07 14:05:04;;;;;;;2.60;1.73;;;;;;;;;;5077386;28;20028;-70
2023/01/07 14:07:30;;;;;;;4.38;2.33;;;;;;;;;;5087671;28;20067;-70
2023/01/07 14:09:57;;;;;;;4.30;1.92;;;;;;;;;;5100337;28;20036;-70
2023/01/07 14:12:29;;;;;;;5.03;2.05;;;;;;;;;;5089956;28;20040;-70
2023/01/07 14:15:18;;;;;;;2.95;1.95;;;;;;;;;;5068728;28;20041;-70
2023/01/07 14:18:01;;;;;;;3.38;2.45;;;;;;;;;;5084793;28;20051;-70
2023/01/07 14:20:52;;;;;;;4.82;1.95;;;;;;;;;;5076677;28;20525;-70
2023/01/07 14:23:28;;;;;;;3.03;2.05;;;;;;;;;;5067672;28;20056;-70
2023/01/07 14:26:04;;;;;;;3.72;2.25;;;;;;;;;;5087993;28;20093;-70
2023/01/07 14:28:30;;;;;;;2.58;1.73;;;;;;;;;;5087918;28;20040;-70
2023/01/07 14:30:57;;;;;;;3.78;2.03;;;;;;;;;;5090761;28;20043;-70